Time;durP1;ratioP1;P1;durP2;ratioP2;P2;SDS_P1;SDS_P2;PMS_P1;PMS_P2;Temp;Humidity;BMP_temperature;BMP_pressure;BME280_temperature;BME280_humidity;BME280_pressure;Samples;Min_cycle;Max_cycle;Signal;HPM_P1;HPM_P2
2023/10/02 00:00:32;;;;;;;13.98;7.97;;;14.50;99.90;;;;;;2077445;28;20048;-72
2023/10/02 00:01:36;;;;;;;14.13;7.95;;;14.50;99.90;;;;;;2079471;28;20478;-71
2023/10/02 00:02:43;;;;;;;12.05;7.80;;;14.50;99.90;;;;;;2087227;28;20037;-72
2023/10/02 00:03:47;;;;;;;12.57;7.97;;;14.50;99.90;;;;;;2085818;28;20052;-71
2023/10/02 00:04:49;;;;;;;12.30;8.38;;;14.50;99.90;;;;;;2086618;28;20090;-71
2023/10/02 00:05:50;;;;;;;13.70;7.95;;;14.50;99.90;;;;;;2090418;28;20497;-71
2023/10/02 00:07:05;;;;;;;12.88;8.02;;;14.50;99.90;;;;;;2086979;28;20036;-71
2023/10/02 00:08:06;;;;;;;14.25;8.10;;;14.50;99.90;;;;;;2081136;28;20025;-76
2023/10/02 00:09:06;;;;;;;13.65;8.18;;;14.50;99.90;;;;;;2087265;28;20124;-77
2023/10/02 00:10:08;;;;;;;11.88;7.93;;;14.50;99.90;;;;;;2087847;28;20071;-77
2023/10/02 00:11:38;;;;;;;13.40;7.93;;;14.40;99.90;;;;;;2089325;28;20024;-77
2023/10/02 00:12:39;;;;;;;13.15;7.80;;;14.40;99.90;;;;;;2083518;28;20029;-76
2023/10/02 00:13:39;;;;;;;13.50;7.93;;;14.40;99.90;;;;;;2088723;28;20033;-76
2023/10/02 00:14:41;;;;;;;12.18;7.95;;;14.40;99.90;;;;;;2085888;28;20028;-76
2023/10/02 00:15:42;;;;;;;12.50;7.90;;;14.40;99.90;;;;;;2085089;28;20374;-76
2023/10/02 00:16:43;;;;;;;12.98;8.13;;;14.40;99.90;;;;;;2084631;28;20029;-76
2023/10/02 00:17:43;;;;;;;13.88;8.40;;;14.40;99.90;;;;;;2083564;28;20025;-77
2023/10/02 00:18:44;;;;;;;14.10;8.38;;;14.40;99.90;;;;;;2087208;28;20036;-78
2023/10/02 00:19:47;;;;;;;13.15;8.32;;;14.40;99.90;;;;;;2089426;28;20055;-75
2023/10/02 00:21:17;;;;;;;13.98;8.70;;;14.40;99.90;;;;;;2088495;28;20108;-77
2023/10/02 00:22:38;;;;;;;11.88;8.10;;;14.30;99.90;;;;;;2082436;28;20029;-76
2023/10/02 00:23:59;;;;;;;13.02;8.65;;;14.30;99.90;;;;;;2089381;28;20036;-77
2023/10/02 00:25:01;;;;;;;12.63;8.10;;;14.30;99.90;;;;;;2089793;28;20483;-77
2023/10/02 00:26:03;;;;;;;13.27;7.55;;;14.30;99.90;;;;;;2088659;28;20037;-76
2023/10/02 00:27:06;;;;;;;12.98;7.32;;;14.30;99.90;;;;;;2084548;28;20021;-78
2023/10/02 00:28:10;;;;;;;11.85;8.10;;;14.30;99.90;;;;;;2081701;28;20020;-77
2023/10/02 00:29:11;;;;;;;12.32;7.82;;;14.40;99.90;;;;;;2089402;28;20147;-77
2023/10/02 00:30:15;;;;;;;13.32;7.93;;;14.30;99.90;;;;;;2088045;28;20017;-77
2023/10/02 00:31:32;;;;;;;13.10;7.95;;;14.30;99.90;;;;;;2079597;28;20487;-76
2023/10/02 00:32:34;;;;;;;11.88;7.68;;;14.30;99.90;;;;;;2083809;28;20465;-76
2023/10/02 00:33:35;;;;;;;12.40;7.90;;;14.20;99.90;;;;;;2091214;28;20028;-77
2023/10/02 00:34:36;;;;;;;12.43;7.90;;;14.20;99.90;;;;;;2085457;28;20669;-77
2023/10/02 00:35:50;;;;;;;12.30;7.60;;;14.20;99.90;;;;;;2084685;28;20495;-77
2023/10/02 00:36:52;;;;;;;13.85;8.05;;;14.20;99.90;;;;;;2088429;28;20127;-77
2023/10/02 00:37:52;;;;;;;14.70;8.90;;;14.20;99.90;;;;;;2090375;28;20037;-77
2023/10/02 00:38:53;;;;;;;12.57;7.68;;;14.20;99.90;;;;;;2087509;28;20108;-79
2023/10/02 00:39:53;;;;;;;12.50;7.47;;;14.20;99.90;;;;;;2086390;28;20024;-71
2023/10/02 00:40:54;;;;;;;14.18;7.68;;;14.20;99.90;;;;;;2084246;28;20021;-71
2023/10/02 00:42:15;;;;;;;13.50;7.65;;;14.20;99.90;;;;;;2087119;28;20043;-75
2023/10/02 00:43:33;;;;;;;14.57;8.50;;;14.10;99.90;;;;;;2085706;28;20033;-73
2023/10/02 00:46:23;;;;;;;14.05;8.20;;;14.20;99.90;;;;;;2082396;28;20037;-74
2023/10/02 00:47:38;;;;;;;13.90;7.90;;;14.20;99.90;;;;;;2087209;28;20169;-74
2023/10/02 00:48:39;;;;;;;12.93;8.27;;;14.20;99.90;;;;;;2082752;28;20100;-74
2023/10/02 00:49:41;;;;;;;13.23;8.25;;;14.10;99.90;;;;;;2088256;28;20597;-74
2023/10/02 00:50:49;;;;;;;12.25;7.53;;;14.10;99.90;;;;;;2077736;28;20508;-74
2023/10/02 00:52:00;;;;;;;11.23;7.88;;;14.10;99.90;;;;;;2083306;28;20509;-74
2023/10/02 00:53:04;;;;;;;13.63;8.27;;;14.10;99.90;;;;;;2088029;28;20025;-74
2023/10/02 00:54:23;;;;;;;13.82;8.05;;;14.10;99.90;;;;;;2079258;28;20078;-75
2023/10/02 00:55:32;;;;;;;13.65;8.30;;;14.00;99.90;;;;;;2090617;28;20080;-75
2023/10/02 00:56:34;;;;;;;15.20;8.00;;;14.00;99.90;;;;;;2085747;28;20032;-73
2023/10/02 00:57:37;;;;;;;13.50;8.52;;;14.00;99.90;;;;;;2088231;28;20399;-75
2023/10/02 00:58:38;;;;;;;14.77;7.85;;;14.00;99.90;;;;;;2081150;28;20090;-74
2023/10/02 00:59:39;;;;;;;13.27;8.02;;;14.00;99.90;;;;;;2080423;28;20029;-75
2023/10/02 01:00:47;;;;;;;16.48;8.27;;;14.00;99.90;;;;;;2086990;28;20120;-74
2023/10/02 01:01:48;;;;;;;14.45;8.68;;;14.00;99.90;;;;;;2087133;28;20031;-74
2023/10/02 01:02:49;;;;;;;12.90;8.68;;;14.00;99.90;;;;;;2084960;28;20029;-74
2023/10/02 01:04:10;;;;;;;13.38;8.05;;;14.00;99.90;;;;;;2074288;28;20029;-74
2023/10/02 01:05:14;;;;;;;12.40;8.57;;;14.00;99.90;;;;;;2087692;28;20044;-74
2023/10/02 01:06:16;;;;;;;14.52;8.40;;;13.90;99.90;;;;;;2089062;28;20613;-73
2023/10/02 01:07:17;;;;;;;14.32;8.63;;;13.90;99.90;;;;;;2082999;28;20028;-74
2023/10/02 01:08:42;;;;;;;15.32;8.52;;;13.90;99.90;;;;;;2089130;28;20586;-75
2023/10/02 01:10:07;;;;;;;13.18;8.05;;;13.90;99.90;;;;;;2088976;28;20025;-74
2023/10/02 01:11:20;;;;;;;16.10;9.13;;;13.90;99.90;;;;;;2084467;28;20060;-74
2023/10/02 01:12:38;;;;;;;14.35;8.77;;;13.90;99.90;;;;;;2083643;28;20496;-74
2023/10/02 01:13:39;;;;;;;14.38;8.50;;;13.90;99.90;;;;;;2083242;28;20555;-74
2023/10/02 01:14:50;;;;;;;16.33;8.98;;;13.90;99.90;;;;;;2085906;28;20083;-75
2023/10/02 01:15:51;;;;;;;13.65;8.32;;;13.90;99.90;;;;;;2087224;28;20033;-74
2023/10/02 01:16:54;;;;;;;14.32;8.63;;;13.90;99.90;;;;;;2086086;28;20138;-75
2023/10/02 01:19:16;;;;;;;14.38;8.95;;;13.90;99.90;;;;;;2086711;28;20511;-74
2023/10/02 01:20:38;;;;;;;13.82;8.65;;;13.90;99.90;;;;;;2085136;28;20033;-75
2023/10/02 01:21:40;;;;;;;12.15;8.57;;;13.90;99.90;;;;;;2075935;28;20025;-74
2023/10/02 01:22:42;;;;;;;13.60;8.38;;;13.90;99.90;;;;;;2075973;28;20188;-74
2023/10/02 01:24:07;;;;;;;14.30;8.55;;;13.90;99.90;;;;;;2073498;28;20535;-75
2023/10/02 01:25:14;;;;;;;15.75;8.43;;;13.90;99.90;;;;;;2080086;28;20052;-74
2023/10/02 01:26:18;;;;;;;17.27;10.40;;;13.90;99.90;;;;;;2090990;28;20386;-75
2023/10/02 01:27:22;;;;;;;14.20;9.60;;;13.80;99.90;;;;;;2090563;28;20044;-75
2023/10/02 01:28:25;;;;;;;14.25;8.27;;;13.80;99.90;;;;;;2086232;28;20094;-75
2023/10/02 01:29:27;;;;;;;15.45;8.75;;;13.90;99.90;;;;;;2082935;28;20029;-74
2023/10/02 01:30:28;;;;;;;12.23;7.82;;;13.80;99.90;;;;;;2080901;28;20037;-74
2023/10/02 01:31:35;;;;;;;12.68;7.95;;;13.80;99.90;;;;;;2079320;28;20025;-74
2023/10/02 01:32:37;;;;;;;12.27;7.75;;;13.80;99.90;;;;;;2085119;28;20028;-74
2023/10/02 01:33:37;;;;;;;13.25;8.30;;;13.80;99.90;;;;;;2086637;28;20079;-73
2023/10/02 01:34:39;;;;;;;14.90;7.85;;;13.80;99.90;;;;;;2066960;28;20026;-73
2023/10/02 01:35:51;;;;;;;15.65;8.30;;;13.80;99.90;;;;;;2086424;28;20029;-74
2023/10/02 01:36:52;;;;;;;13.25;8.23;;;13.80;99.90;;;;;;2090767;28;20028;-74
2023/10/02 01:37:55;;;;;;;14.07;8.07;;;13.80;99.90;;;;;;2082843;28;20040;-74
2023/10/02 01:38:59;;;;;;;14.63;7.90;;;13.80;99.90;;;;;;2094288;28;20042;-75
2023/10/02 01:41:20;;;;;;;14.95;8.40;;;13.80;99.90;;;;;;2081694;28;20043;-73
2023/10/02 01:42:20;;;;;;;11.48;7.80;;;13.80;99.90;;;;;;2083652;28;20021;-74
2023/10/02 01:43:27;;;;;;;14.05;8.18;;;13.70;99.90;;;;;;2089517;28;20029;-74
2023/10/02 01:44:29;;;;;;;12.95;7.70;;;13.70;99.90;;;;;;2082226;28;20070;-74
2023/10/02 01:45:34;;;;;;;14.30;8.10;;;13.70;99.90;;;;;;2090591;28;20028;-74
2023/10/02 01:46:36;;;;;;;13.63;7.80;;;13.70;99.90;;;;;;2082697;28;20167;-73
2023/10/02 01:47:41;;;;;;;12.85;7.72;;;13.70;99.90;;;;;;2086172;28;20028;-73
2023/10/02 01:48:41;;;;;;;13.45;7.97;;;13.70;99.90;;;;;;2087021;28;20029;-73
2023/10/02 01:49:42;;;;;;;13.57;7.85;;;13.70;99.90;;;;;;2086869;28;20435;-73
2023/10/02 01:50:43;;;;;;;14.35;8.20;;;13.70;99.90;;;;;;2082746;28;20123;-73
2023/10/02 01:51:50;;;;;;;12.27;7.88;;;13.70;99.90;;;;;;2079277;28;20111;-72
2023/10/02 01:52:50;;;;;;;12.93;7.85;;;13.60;99.90;;;;;;2090934;28;20031;-73
2023/10/02 01:53:56;;;;;;;14.52;7.88;;;13.60;99.90;;;;;;2087514;28;20028;-73
2023/10/02 01:54:58;;;;;;;12.65;7.93;;;13.60;99.90;;;;;;2076940;28;20026;-73
2023/10/02 01:56:11;;;;;;;12.73;8.10;;;13.60;99.90;;;;;;2070648;28;20085;-74
2023/10/02 01:57:24;;;;;;;13.75;8.18;;;13.60;99.90;;;;;;2093155;28;20465;-73
2023/10/02 01:58:26;;;;;;;12.75;8.20;;;13.60;99.90;;;;;;2091343;28;20482;-74
2023/10/02 01:59:28;;;;;;;13.07;7.78;;;13.60;99.90;;;;;;2068015;28;20064;-74
2023/10/02 02:00:29;;;;;;;12.02;7.63;;;13.60;99.90;;;;;;2060071;28;20496;-73
2023/10/02 02:01:35;;;;;;;12.70;7.25;;;13.50;99.90;;;;;;2079433;28;20064;-73
2023/10/02 02:03:14;;;;;;;12.63;7.75;;;13.60;99.90;;;;;;2087204;28;20657;-73
2023/10/02 02:04:07;;;;;;;11.73;7.95;;;13.60;99.90;;;;;;2087193;28;20024;-74
2023/10/02 02:05:14;;;;;;;13.90;7.97;;;13.60;99.90;;;;;;2088928;28;20048;-73
2023/10/02 02:06:21;;;;;;;14.15;8.20;;;13.60;99.90;;;;;;2084364;28;20044;-75
2023/10/02 02:07:22;;;;;;;12.68;7.93;;;13.60;99.90;;;;;;2086655;28;20036;-74
2023/10/02 02:08:23;;;;;;;12.82;7.88;;;13.50;99.90;;;;;;2087739;28;20025;-74
2023/10/02 02:09:31;;;;;;;13.00;8.00;;;13.60;99.90;;;;;;2088733;28;20055;-74
2023/10/02 02:10:32;;;;;;;12.77;7.97;;;13.50;99.90;;;;;;2085995;28;20032;-74
2023/10/02 02:11:34;;;;;;;13.38;7.88;;;13.50;99.90;;;;;;2086615;28;20025;-74
2023/10/02 02:12:44;;;;;;;15.43;8.52;;;13.50;99.90;;;;;;2083509;28;20025;-74
2023/10/02 02:13:53;;;;;;;12.10;7.90;;;13.50;99.90;;;;;;2083464;28;20024;-75
2023/10/02 02:14:56;;;;;;;14.13;8.27;;;13.50;99.90;;;;;;2083547;28;20029;-74
2023/10/02 02:16:07;;;;;;;12.57;7.97;;;13.50;99.90;;;;;;2081182;28;20071;-74
2023/10/02 02:17:11;;;;;;;13.02;7.50;;;13.50;99.90;;;;;;2080105;28;20097;-75
2023/10/02 02:18:11;;;;;;;15.05;7.93;;;13.50;99.90;;;;;;2074178;28;20120;-74
2023/10/02 02:19:12;;;;;;;13.65;7.95;;;13.40;99.90;;;;;;2089587;28;20419;-74
2023/10/02 02:20:43;;;;;;;13.48;7.90;;;13.50;99.90;;;;;;2079453;28;20025;-74
2023/10/02 02:21:35;;;;;;;13.93;7.93;;;13.40;99.90;;;;;;2086619;28;20032;-73
2023/10/02 02:22:37;;;;;;;13.10;8.10;;;13.50;99.90;;;;;;2086896;28;20492;-75
2023/10/02 02:23:37;;;;;;;12.60;7.78;;;13.50;99.90;;;;;;2089084;28;20028;-74
2023/10/02 02:24:38;;;;;;;14.13;7.90;;;13.40;99.90;;;;;;2090855;28;20021;-74
2023/10/02 02:25:39;;;;;;;15.07;8.20;;;13.40;99.90;;;;;;2080986;28;20035;-74
2023/10/02 02:26:40;;;;;;;13.52;8.60;;;13.50;99.90;;;;;;2082436;28;20058;-74
2023/10/02 02:27:45;;;;;;;12.68;8.25;;;13.40;99.90;;;;;;2087702;28;20116;-75
2023/10/02 02:28:51;;;;;;;14.35;7.75;;;13.40;99.90;;;;;;2090130;28;20035;-73
2023/10/02 02:29:56;;;;;;;14.82;8.23;;;13.40;99.90;;;;;;2087325;28;20090;-74
2023/10/02 02:30:57;;;;;;;13.23;7.90;;;13.40;99.90;;;;;;2088876;28;20531;-74
2023/10/02 02:31:58;;;;;;;13.32;8.13;;;13.40;99.90;;;;;;2082658;28;20503;-75
2023/10/02 02:33:00;;;;;;;13.75;7.85;;;13.40;99.90;;;;;;2089580;28;20028;-73
2023/10/02 02:34:04;;;;;;;13.15;8.15;;;13.40;99.90;;;;;;2086714;28;20032;-74
2023/10/02 02:35:09;;;;;;;12.48;7.90;;;13.30;99.90;;;;;;2087358;28;20078;-73
2023/10/02 02:36:09;;;;;;;14.23;8.07;;;13.30;99.90;;;;;;2091641;28;20100;-73
2023/10/02 02:37:10;;;;;;;12.93;7.93;;;13.30;99.90;;;;;;2091362;28;20070;-73
2023/10/02 02:38:16;;;;;;;13.15;7.97;;;13.30;99.90;;;;;;2083876;28;20512;-73
2023/10/02 02:39:25;;;;;;;13.02;7.70;;;13.30;99.90;;;;;;2087323;28;20036;-74
2023/10/02 02:40:26;;;;;;;12.82;8.15;;;13.30;99.90;;;;;;2089285;28;20032;-74
2023/10/02 02:41:27;;;;;;;13.07;8.23;;;13.30;99.90;;;;;;2089187;28;20531;-74
2023/10/02 02:42:30;;;;;;;13.77;8.20;;;13.30;99.90;;;;;;2078842;28;20532;-73
2023/10/02 02:43:32;;;;;;;13.25;8.18;;;13.30;99.90;;;;;;2074592;28;20097;-74
2023/10/02 02:44:39;;;;;;;14.68;8.70;;;13.30;99.90;;;;;;2084239;28;20472;-74
2023/10/02 02:45:41;;;;;;;15.40;8.30;;;13.30;99.90;;;;;;2098883;28;20077;-75
2023/10/02 02:46:53;;;;;;;12.77;8.35;;;13.30;99.90;;;;;;2095367;28;20511;-74
2023/10/02 02:48:07;;;;;;;13.52;8.18;;;13.30;99.90;;;;;;2084012;28;20033;-74
2023/10/02 02:49:11;;;;;;;12.30;7.75;;;13.30;99.90;;;;;;2088638;28;20355;-74
2023/10/02 02:50:14;;;;;;;13.50;8.35;;;13.40;99.90;;;;;;2087032;28;20708;-73
2023/10/02 02:51:15;;;;;;;14.85;8.32;;;13.40;99.90;;;;;;2079061;28;20439;-74
2023/10/02 02:52:27;;;;;;;13.43;8.35;;;13.30;99.90;;;;;;2082574;28;20032;-74
2023/10/02 02:53:30;;;;;;;13.63;8.02;;;13.30;99.90;;;;;;2082514;28;20029;-74
2023/10/02 02:54:31;;;;;;;13.18;8.20;;;13.30;99.90;;;;;;2087058;28;20446;-74
2023/10/02 02:55:31;;;;;;;14.25;8.32;;;13.20;99.90;;;;;;2090645;28;20141;-73
2023/10/02 02:56:34;;;;;;;15.55;8.70;;;13.30;99.90;;;;;;2088446;28;20574;-74
2023/10/02 02:57:39;;;;;;;13.40;8.32;;;13.20;99.90;;;;;;2084521;28;20036;-73
2023/10/02 02:58:39;;;;;;;15.80;8.65;;;13.20;99.90;;;;;;2087059;28;20116;-73
2023/10/02 02:59:40;;;;;;;14.77;8.45;;;13.20;99.90;;;;;;2088391;28;20523;-73
2023/10/02 03:00:40;;;;;;;12.60;8.00;;;13.20;99.90;;;;;;2090584;28;20028;-73
2023/10/02 03:01:41;;;;;;;15.13;8.05;;;13.20;99.90;;;;;;2087712;28;20028;-74
2023/10/02 03:02:46;;;;;;;14.80;8.85;;;13.20;99.90;;;;;;2086525;28;20033;-73
2023/10/02 03:03:46;;;;;;;14.13;8.30;;;13.20;99.90;;;;;;2086869;28;20115;-73
2023/10/02 03:04:53;;;;;;;14.50;8.57;;;13.20;99.90;;;;;;2082930;28;20095;-74
2023/10/02 03:05:58;;;;;;;14.00;8.90;;;13.20;99.90;;;;;;2088679;28;20032;-74
2023/10/02 03:07:09;;;;;;;16.33;8.77;;;13.20;99.90;;;;;;2087901;28;20182;-74
2023/10/02 03:08:11;;;;;;;13.38;8.77;;;13.20;99.90;;;;;;2086751;28;20029;-73
2023/10/02 03:09:23;;;;;;;12.20;8.32;;;13.10;99.90;;;;;;2085290;28;20054;-73
2023/10/02 03:10:24;;;;;;;14.20;8.63;;;13.10;99.90;;;;;;2084532;28;20123;-73
2023/10/02 03:11:28;;;;;;;13.20;8.20;;;13.10;99.90;;;;;;2088266;28;20158;-75
2023/10/02 03:12:30;;;;;;;14.52;8.70;;;13.10;99.90;;;;;;2083247;28;20041;-75
2023/10/02 03:13:31;;;;;;;14.38;8.80;;;13.10;99.90;;;;;;2088106;28;20024;-75
2023/10/02 03:14:34;;;;;;;12.57;8.35;;;13.10;99.90;;;;;;2082636;28;20029;-75
2023/10/02 03:15:47;;;;;;;13.57;8.15;;;13.10;99.90;;;;;;2086268;28;20029;-77
2023/10/02 03:16:47;;;;;;;14.23;8.30;;;13.10;99.90;;;;;;2085139;28;20033;-74
2023/10/02 03:17:49;;;;;;;15.07;8.38;;;13.20;99.90;;;;;;2083218;28;20112;-73
2023/10/02 03:18:54;;;;;;;12.57;8.20;;;13.10;99.90;;;;;;2086667;28;20031;-75
2023/10/02 03:19:58;;;;;;;14.52;8.10;;;13.20;99.90;;;;;;2086656;28;20020;-74
2023/10/02 03:21:34;;;;;;;14.27;8.63;;;13.10;99.90;;;;;;2084289;28;20025;-74
2023/10/02 03:22:27;;;;;;;14.13;8.43;;;13.20;99.90;;;;;;2081556;28;20420;-74
2023/10/02 03:23:30;;;;;;;15.20;8.88;;;13.10;99.90;;;;;;2084402;28;20040;-74
2023/10/02 03:24:33;;;;;;;14.73;9.20;;;13.10;99.90;;;;;;2072373;28;20107;-75
2023/10/02 03:25:45;;;;;;;13.40;8.30;;;13.10;99.90;;;;;;2078375;28;20951;-74
2023/10/02 03:26:52;;;;;;;14.50;8.38;;;13.10;99.90;;;;;;2083239;28;20112;-74
2023/10/02 03:27:55;;;;;;;13.85;8.32;;;13.10;99.90;;;;;;2091402;28;20467;-75
2023/10/02 03:29:02;;;;;;;13.27;8.85;;;13.10;99.90;;;;;;2089671;28;20097;-74
2023/10/02 03:30:03;;;;;;;14.88;8.80;;;13.10;99.90;;;;;;2089572;28;20319;-75
2023/10/02 03:31:16;;;;;;;14.48;8.77;;;13.00;99.90;;;;;;2091138;28;20402;-75
2023/10/02 03:32:18;;;;;;;13.25;8.73;;;13.00;99.90;;;;;;2079926;28;20655;-74
2023/10/02 03:33:20;;;;;;;14.20;8.63;;;13.00;99.90;;;;;;2088135;28;20055;-74
2023/10/02 03:34:33;;;;;;;16.15;8.80;;;13.00;99.90;;;;;;2092392;28;20580;-75
2023/10/02 03:35:39;;;;;;;13.05;8.20;;;13.00;99.90;;;;;;2085269;28;20033;-74
2023/10/02 03:36:39;;;;;;;15.15;8.38;;;13.00;99.90;;;;;;2091866;28;20036;-73
2023/10/02 03:37:40;;;;;;;15.70;8.90;;;13.00;99.90;;;;;;2092135;28;20025;-73
2023/10/02 03:38:43;;;;;;;13.85;8.18;;;13.00;99.90;;;;;;2092078;28;20036;-74
2023/10/02 03:41:01;;;;;;;15.15;8.48;;;13.00;99.90;;;;;;2088591;28;20024;-74
2023/10/02 03:42:02;;;;;;;13.98;8.27;;;13.00;99.90;;;;;;2090567;28;20052;-74
2023/10/02 03:43:18;;;;;;;14.65;8.40;;;13.00;99.90;;;;;;2090462;28;20478;-73
2023/10/02 03:44:19;;;;;;;13.18;8.05;;;13.00;99.90;;;;;;2080934;28;20028;-73
2023/10/02 03:45:38;;;;;;;13.20;8.43;;;13.00;99.90;;;;;;2088551;28;20037;-73
2023/10/02 03:46:40;;;;;;;14.88;7.72;;;13.00;99.90;;;;;;2088639;28;20646;-74
2023/10/02 03:47:43;;;;;;;14.23;8.65;;;12.90;99.90;;;;;;2091966;28;20142;-74
2023/10/02 03:48:51;;;;;;;12.57;8.07;;;12.90;99.90;;;;;;2087899;28;20032;-74
2023/10/02 03:50:00;;;;;;;15.18;8.75;;;12.90;99.90;;;;;;2085880;28;20024;-73
2023/10/02 03:51:04;;;;;;;12.48;8.13;;;12.90;99.90;;;;;;2092732;28;20032;-73
2023/10/02 03:52:05;;;;;;;13.90;8.52;;;12.90;99.90;;;;;;2090520;28;20047;-73
2023/10/02 03:53:28;;;;;;;13.40;8.40;;;12.90;99.90;;;;;;2090593;28;20028;-75
2023/10/02 03:54:29;;;;;;;12.90;8.10;;;12.90;99.90;;;;;;2083748;28;20507;-74
2023/10/02 03:55:33;;;;;;;12.43;8.13;;;12.90;99.90;;;;;;2088792;28;20048;-73
2023/10/02 03:56:36;;;;;;;14.30;8.55;;;12.90;99.90;;;;;;2092876;28;20036;-73
2023/10/02 03:57:37;;;;;;;15.93;8.73;;;12.90;99.90;;;;;;2091935;28;20086;-73
2023/10/02 03:58:38;;;;;;;15.00;8.73;;;12.90;99.90;;;;;;2083655;28;20577;-76
2023/10/02 03:59:54;;;;;;;14.25;8.30;;;12.90;99.90;;;;;;2081401;28;20745;-76
2023/10/02 04:00:54;;;;;;;13.93;8.07;;;12.90;99.90;;;;;;2085670;28;20495;-75
2023/10/02 04:02:24;;;;;;;13.27;8.75;;;12.90;99.90;;;;;;2091519;28;20020;-75
2023/10/02 04:03:19;;;;;;;15.80;8.73;;;12.90;99.90;;;;;;2087194;28;20021;-75
2023/10/02 04:04:21;;;;;;;15.15;8.63;;;12.80;99.90;;;;;;2084525;28;20067;-75
2023/10/02 04:05:34;;;;;;;12.98;8.38;;;12.80;99.90;;;;;;2083566;28;20412;-75
2023/10/02 04:06:35;;;;;;;13.43;8.32;;;12.80;99.90;;;;;;2085922;28;20033;-74
2023/10/02 04:07:36;;;;;;;13.90;8.60;;;12.80;99.90;;;;;;2092491;28;20047;-75
2023/10/02 04:08:37;;;;;;;18.80;8.85;;;12.80;99.90;;;;;;2092113;28;20032;-78
2023/10/02 04:09:38;;;;;;;14.20;8.52;;;12.80;99.90;;;;;;2092273;28;20450;-78
2023/10/02 04:10:51;;;;;;;14.63;8.65;;;12.80;99.90;;;;;;2079885;28;20087;-79
2023/10/02 04:11:54;;;;;;;13.68;8.32;;;12.80;99.90;;;;;;2079481;28;20036;-79
2023/10/02 04:12:57;;;;;;;15.10;8.55;;;12.80;99.90;;;;;;2071600;28;20511;-78
2023/10/02 04:13:59;;;;;;;14.07;8.18;;;12.80;99.90;;;;;;2084042;28;20074;-78
2023/10/02 04:15:04;;;;;;;15.48;8.40;;;12.80;99.90;;;;;;2101097;28;20497;-78
2023/10/02 04:17:30;;;;;;;16.02;8.52;;;12.90;99.90;;;;;;2084546;28;20048;-79
2023/10/02 04:18:59;;;;;;;;;;;12.90;99.90;;;;;;2089026;28;20446;-81
2023/10/02 04:20:26;;;;;;;15.10;8.70;;;12.90;99.90;;;;;;2076477;28;19909;-79
2023/10/02 04:21:24;;;;;;;13.57;8.25;;;12.80;99.90;;;;;;2082203;28;20040;-81
2023/10/02 04:22:25;;;;;;;17.02;8.93;;;12.90;99.90;;;;;;2073734;28;20037;-79
2023/10/02 04:23:26;;;;;;;14.52;8.55;;;12.90;99.90;;;;;;2072713;28;20030;-80
2023/10/02 04:24:26;;;;;;;13.93;9.00;;;12.80;99.90;;;;;;2079589;28;20035;-80
2023/10/02 04:25:35;;;;;;;18.13;8.93;;;12.80;99.90;;;;;;2083684;28;20111;-79
2023/10/02 04:26:36;;;;;;;14.50;8.95;;;12.80;99.90;;;;;;2084263;28;20113;-79
2023/10/02 04:28:49;;;;;;;14.35;8.45;;;12.70;99.90;;;;;;2087122;28;20036;-76
2023/10/02 04:30:20;;;;;;;16.58;9.52;;;12.70;99.90;;;;;;2088194;28;20200;-79
2023/10/02 04:31:22;;;;;;;15.18;8.65;;;12.70;99.90;;;;;;2091143;28;20037;-79
2023/10/02 04:32:24;;;;;;;17.45;8.77;;;12.60;99.90;;;;;;2075260;28;20037;-78
2023/10/02 04:33:25;;;;;;;15.13;9.02;;;12.60;99.90;;;;;;2067015;28;20333;-78
2023/10/02 04:34:29;;;;;;;15.15;9.20;;;12.60;99.90;;;;;;2078816;28;20029;-79
2023/10/02 04:35:45;;;;;;;17.65;8.57;;;12.60;99.90;;;;;;2091378;28;20295;-79
2023/10/02 04:36:45;;;;;;;15.80;9.30;;;12.60;99.90;;;;;;2084920;28;20060;-78
2023/10/02 04:37:48;;;;;;;14.93;8.82;;;12.70;99.90;;;;;;2091512;28;20395;-79
2023/10/02 04:38:49;;;;;;;17.85;8.80;;;12.70;99.90;;;;;;2094432;28;20040;-78
2023/10/02 04:39:52;;;;;;;15.45;9.02;;;12.60;99.90;;;;;;2091545;28;20048;-78
2023/10/02 04:40:55;;;;;;;17.02;8.75;;;12.60;99.90;;;;;;2080175;28;20037;-77
2023/10/02 04:42:14;;;;;;;14.82;8.98;;;12.60;99.90;;;;;;2082273;28;20565;-78
2023/10/02 04:43:25;;;;;;;14.57;8.70;;;12.60;99.90;;;;;;2089486;28;20040;-79
2023/10/02 04:44:28;;;;;;;16.30;9.02;;;12.60;99.90;;;;;;2076715;28;20111;-79
2023/10/02 04:45:36;;;;;;;13.25;8.57;;;12.60;99.90;;;;;;2080190;28;20163;-79
2023/10/02 04:46:36;;;;;;;15.55;8.88;;;12.70;99.90;;;;;;2076829;28;20116;-79
2023/10/02 04:47:40;;;;;;;15.10;9.20;;;12.70;99.90;;;;;;2086940;28;20256;-79
2023/10/02 04:48:45;;;;;;;17.52;8.73;;;12.80;99.90;;;;;;2087770;28;20016;-79
2023/10/02 04:51:08;;;;;;;16.30;9.05;;;12.80;99.90;;;;;;2086660;28;20020;-79
2023/10/02 04:52:09;;;;;;;16.85;8.93;;;12.80;99.90;;;;;;2085630;28;20108;-79
2023/10/02 04:53:19;;;;;;;13.95;8.88;;;12.80;99.90;;;;;;2089872;28;20391;-79
2023/10/02 04:54:23;;;;;;;16.58;9.18;;;12.90;99.90;;;;;;2092632;28;20116;-80
2023/10/02 04:55:32;;;;;;;15.35;8.75;;;12.80;99.90;;;;;;2092397;28;20036;-78
2023/10/02 04:56:32;;;;;;;16.67;8.65;;;12.80;99.90;;;;;;2089090;28;20033;-79
2023/10/02 04:57:34;;;;;;;15.52;9.05;;;12.90;99.90;;;;;;2083369;28;20517;-81
2023/10/02 04:58:39;;;;;;;13.60;8.45;;;12.80;99.90;;;;;;2075065;28;20064;-84
2023/10/02 04:59:51;;;;;;;16.77;8.80;;;12.80;99.90;;;;;;2090602;28;20125;-81
2023/10/02 05:02:23;;;;;;;43.55;10.27;;;12.90;99.90;;;;;;2086090;28;20025;-83
2023/10/02 05:03:27;;;;;;;36.58;9.85;;;12.90;99.90;;;;;;2084026;28;20551;-83
2023/10/02 05:04:31;;;;;;;48.33;10.25;;;12.90;99.90;;;;;;2084260;28;20045;-83
2023/10/02 05:05:36;;;;;;;17.30;9.02;;;12.90;99.90;;;;;;2084125;28;20025;-84
2023/10/02 05:06:44;;;;;;;135.25;13.55;;;12.90;99.90;;;;;;2082933;28;20037;-84
2023/10/02 05:07:47;;;;;;;18.33;8.88;;;12.80;99.90;;;;;;2084591;28;20024;-83
2023/10/02 05:09:53;;;;;;;16.08;8.65;;;12.70;99.90;;;;;;2074890;28;20417;-83
2023/10/02 05:11:06;;;;;;;18.50;9.13;;;12.70;99.90;;;;;;2067015;28;20032;-83
2023/10/02 05:12:07;;;;;;;14.68;9.05;;;12.60;99.90;;;;;;2068672;28;20551;-85
2023/10/02 05:13:08;;;;;;;14.95;9.20;;;12.60;99.90;;;;;;2067968;28;20029;-84
2023/10/02 05:14:09;;;;;;;15.68;9.07;;;12.60;99.90;;;;;;2068651;28;20057;-82
2023/10/02 05:15:20;;;;;;;14.55;8.85;;;12.60;99.90;;;;;;2076726;28;20032;-82
2023/10/02 05:16:32;;;;;;;;;;;12.60;99.90;;;;;;2074200;28;20037;-84
2023/10/02 05:17:44;;;;;;;16.13;9.38;;;12.60;99.90;;;;;;2077837;28;20148;-85
2023/10/02 05:18:47;;;;;;;15.50;8.85;;;12.60;99.90;;;;;;2077610;28;20064;-83
2023/10/02 05:20:03;;;;;;;14.55;8.90;;;12.60;99.90;;;;;;2076707;28;20061;-83
2023/10/02 05:21:04;;;;;;;14.63;8.93;;;12.60;99.90;;;;;;2081517;28;20013;-88
2023/10/02 05:22:04;;;;;;;13.45;8.80;;;12.60;99.90;;;;;;2077666;28;20146;-86
2023/10/02 05:23:05;;;;;;;15.57;9.00;;;12.60;99.90;;;;;;2070376;28;20104;-86
2023/10/02 05:24:12;;;;;;;14.82;9.18;;;12.60;99.90;;;;;;2085349;28;20031;-85
2023/10/02 05:25:18;;;;;;;13.48;8.82;;;12.60;99.90;;;;;;2048316;28;1023463;-80
2023/10/02 05:26:32;;;;;;;13.93;8.50;;;12.60;99.90;;;;;;2087103;28;20475;-81
2023/10/02 05:27:37;;;;;;;16.40;9.55;;;12.60;99.90;;;;;;2082126;28;20037;-80
2023/10/02 05:28:44;;;;;;;16.15;8.95;;;12.60;99.90;;;;;;2091094;28;20063;-82
2023/10/02 05:29:44;;;;;;;15.15;9.40;;;12.60;99.90;;;;;;2084720;28;20912;-88
2023/10/02 05:30:46;;;;;;;15.88;9.35;;;12.70;99.90;;;;;;2089846;28;20033;-86
2023/10/02 05:31:48;;;;;;;14.32;8.77;;;12.70;99.90;;;;;;2090849;28;20029;-86
2023/10/02 05:32:49;;;;;;;15.25;9.55;;;12.70;99.90;;;;;;2089266;28;20391;-86
2023/10/02 05:33:49;;;;;;;16.17;8.88;;;12.70;99.90;;;;;;2090451;28;20025;-86
2023/10/02 05:36:10;;;;;;;17.30;9.40;;;12.70;99.90;;;;;;2089695;28;20115;-88
2023/10/02 05:37:23;;;;;;;18.40;9.75;;;12.70;99.90;;;;;;2094328;28;20012;-87
2023/10/02 05:38:23;;;;;;;16.45;9.25;;;12.70;99.90;;;;;;2094258;28;20075;-84
2023/10/02 05:39:39;;;;;;;15.73;9.02;;;12.70;99.90;;;;;;2088687;28;20499;-83
2023/10/02 05:40:42;;;;;;;17.08;8.93;;;12.70;99.90;;;;;;2086889;28;20056;-89
2023/10/02 05:41:46;;;;;;;15.20;8.95;;;12.70;99.90;;;;;;2090077;28;20518;-87
2023/10/02 05:43:09;;;;;;;16.23;9.05;;;12.80;99.90;;;;;;2088937;28;20060;-85
2023/10/02 05:44:19;;;;;;;17.05;9.20;;;12.80;99.90;;;;;;2083976;28;20472;-87
2023/10/02 05:45:37;;;;;;;17.67;9.25;;;12.80;99.90;;;;;;2089123;28;20549;-83
2023/10/02 05:46:55;;;;;;;20.08;9.18;;;12.80;99.90;;;;;;2087530;28;20764;-83
2023/10/02 05:47:55;;;;;;;16.80;9.23;;;12.80;99.90;;;;;;2095663;28;20039;-78
2023/10/02 05:49:00;;;;;;;16.90;8.77;;;12.90;99.90;;;;;;2091334;28;20023;-81
2023/10/02 05:50:04;;;;;;;19.45;9.40;;;12.80;99.90;;;;;;2088827;28;20048;-83
2023/10/02 05:51:12;;;;;;;18.63;8.70;;;12.90;99.90;;;;;;2088536;28;20043;-84